Wetterstation Vordersexau
Wetterdaten: Woche 15.01.18 - 21.01.18 (KW3)
Datum Zeit Temp. A. Feuchte A. Luftdruck Regen Wind Richtung Taupunkt Windchill Windben
15.01.2018 00:00 -3,0 C 86 % 1018,7 hPa 0,0 l/m 0,0 km/h SO -5,0 C -3,0 C 0,0 km/h
15.01.2018 01:00 -3,5 C 86 % 1018,3 hPa 0,0 l/m 0,0 km/h SO -5,5 C -3,5 C 0,0 km/h
15.01.2018 02:00 -3,8 C 86 % 1018,0 hPa 0,0 l/m 0,0 km/h O-SO -5,8 C -3,8 C 0,0 km/h
15.01.2018 03:00 -3,9 C 86 % 1017,7 hPa 0,0 l/m 0,0 km/h SO -5,9 C -3,9 C 0,0 km/h
15.01.2018 04:00 -3,6 C 86 % 1017,2 hPa 0,0 l/m 3,2 km/h SO -5,6 C -3,6 C 1,8 km/h
15.01.2018 05:00 -3,9 C 85 % 1016,8 hPa 0,0 l/m 0,0 km/h N-NO -6,0 C -3,9 C 0,0 km/h
15.01.2018 06:00 -3,1 C 85 % 1016,7 hPa 0,0 l/m 0,0 km/h N-NO -5,3 C -3,1 C 0,0 km/h
15.01.2018 07:00 -2,5 C 84 % 1016,5 hPa 0,0 l/m 0,0 km/h O-SO -4,8 C -2,5 C 0,0 km/h
15.01.2018 08:00 -0,9 C 83 % 1016,3 hPa 0,0 l/m 11,0 km/h O-SO -3,4 C -5,3 C 6,1 km/h
15.01.2018 09:00 0,1 C 83 % 1015,7 hPa 0,0 l/m 0,0 km/h SO -2,4 C 0,1 C 0,0 km/h
15.01.2018 10:00 1,3 C 83 % 1015,4 hPa 0,0 l/m 0,0 km/h NO -1,3 C 1,3 C 0,0 km/h
15.01.2018 11:00 3,3 C 85 % 1014,2 hPa 0,0 l/m 0,0 km/h W-SW 1,0 C 3,3 C 0,0 km/h
15.01.2018 12:00 7,2 C 80 % 1013,0 hPa 0,0 l/m 0,0 km/h W-SW 4,0 C 7,2 C 0,0 km/h
15.01.2018 13:00 7,9 C 73 % 1012,0 hPa 0,0 l/m 0,0 km/h W-SW 3,4 C 7,9 C 0,0 km/h
15.01.2018 14:00 8,3 C 69 % 1010,4 hPa 0,0 l/m 7,1 km/h W-SW 3,0 C 7,8 C 4,0 km/h
15.01.2018 15:00 7,6 C 69 % 1008,5 hPa 0,0 l/m 20,1 km/h S-SW 2,3 C 0,2 C 11,2 km/h
15.01.2018 16:00 7,5 C 70 % 1007,5 hPa 0,0 l/m 0,0 km/h SW 2,4 C 7,5 C 0,0 km/h
15.01.2018 17:00 7,9 C 69 % 1006,4 hPa 0,0 l/m 35,6 km/h W 2,6 C -3,5 C 19,8 km/h
15.01.2018 18:00 8,4 C 67 % 1004,9 hPa 0,0 l/m 19,4 km/h W-SW 2,6 C 1,4 C 10,8 km/h
15.01.2018 19:00 6,7 C 78 % 1005,0 hPa 0,0 l/m 26,6 km/h W-SW 3,1 C -3,1 C 14,8 km/h
15.01.2018 20:00 6,9 C 79 % 1004,2 hPa 0,0 l/m 25,9 km/h S-SW 3,5 C -2,6 C 14,4 km/h
15.01.2018 21:00 6,9 C 80 % 1003,3 hPa 0,0 l/m 36,3 km/h SW 3,7 C -5,1 C 20,2 km/h
15.01.2018 22:00 7,3 C 79 % 1002,7 hPa 0,0 l/m 14,9 km/h W-SW 3,9 C 1,9 C 8,3 km/h
15.01.2018 23:00 7,4 C 81 % 1002,5 hPa 0,0 l/m 45,4 km/h W-SW 4,4 C -5,8 C 25,2 km/h
16.01.2018 00:00 7,8 C 80 % 1002,1 hPa 0,0 l/m 22,0 km/h W-SW 4,6 C -0,2 C 12,2 km/h
16.01.2018 01:00 8,2 C 78 % 1001,5 hPa 0,0 l/m 34,3 km/h SW 4,6 C -2,8 C 19,1 km/h
16.01.2018 02:00 8,0 C 80 % 1001,5 hPa 0,0 l/m 23,3 km/h W-SW 4,8 C -0,4 C 13,0 km/h
16.01.2018 03:00 8,2 C 79 % 1000,8 hPa 0,0 l/m 25,9 km/h W-SW 4,8 C -0,9 C 14,4 km/h
16.01.2018 04:00 8,1 C 80 % 999,9 hPa 0,0 l/m 20,1 km/h W-SW 4,9 C 0,8 C 11,2 km/h
16.01.2018 05:00 8,2 C 80 % 998,8 hPa 0,0 l/m 42,1 km/h W 5,0 C -4,1 C 23,4 km/h
16.01.2018 06:00 8,1 C 82 % 998,8 hPa 0,0 l/m 33,7 km/h W 5,2 C -2,8 C 18,7 km/h
16.01.2018 07:00 7,8 C 83 % 998,8 hPa 0,0 l/m 32,4 km/h W 5,1 C -3,0 C 18,0 km/h
16.01.2018 08:00 7,3 C 85 % 999,4 hPa 0,0 l/m 23,3 km/h SW 4,9 C -1,3 C 13,0 km/h
16.01.2018 09:00 7,3 C 85 % 999,8 hPa 0,0 l/m 31,1 km/h W 4,9 C -3,4 C 17,3 km/h
16.01.2018 10:00 7,3 C 84 % 999,6 hPa 1,0 l/m 6,5 km/h NW 4,8 C 7,2 C 3,6 km/h
16.01.2018 11:00 8,4 C 85 % 998,6 hPa 0,5 l/m 35,6 km/h W-SW 6,0 C -2,7 C 19,8 km/h
16.01.2018 12:00 9,0 C 83 % 998,2 hPa 0,0 l/m 38,9 km/h W-NW 6,3 C -2,4 C 21,6 km/h
16.01.2018 13:00 7,9 C 84 % 999,5 hPa 0,0 l/m 21,4 km/h W-NW 5,4 C 0,1 C 11,9 km/h
16.01.2018 14:00 8,5 C 85 % 999,3 hPa 1,0 l/m 0,0 km/h W 6,1 C 8,5 C 0,0 km/h
16.01.2018 15:00 8,9 C 79 % 999,3 hPa 0,0 l/m 4,5 km/h W-SW 5,5 C 8,9 C 2,5 km/h
16.01.2018 16:00 7,9 C 80 % 999,1 hPa 0,0 l/m 10,4 km/h S-SW 4,7 C 5,0 C 5,8 km/h
16.01.2018 17:00 7,3 C 83 % 999,0 hPa 0,0 l/m 16,2 km/h W-NW 4,6 C 1,3 C 9,0 km/h
16.01.2018 18:00 6,3 C 85 % 999,3 hPa 0,0 l/m 0,0 km/h NW 4,0 C 6,3 C 0,0 km/h
16.01.2018 19:00 4,9 C 86 % 999,8 hPa 1,0 l/m 22,0 km/h W 2,8 C -4,1 C 12,2 km/h
16.01.2018 20:00 5,1 C 86 % 999,6 hPa 0,5 l/m 0,0 km/h N-NO 3,0 C 5,1 C 0,0 km/h
16.01.2018 21:00 4,9 C 86 % 999,6 hPa 0,0 l/m 4,5 km/h W-NW 2,8 C 4,9 C 2,5 km/h
16.01.2018 22:00 4,2 C 85 % 998,7 hPa 0,5 l/m 0,0 km/h S-SW 1,9 C 4,2 C 0,0 km/h
16.01.2018 23:00 5,8 C 86 % 997,4 hPa 0,0 l/m 11,0 km/h W 3,6 C 2,3 C 6,1 km/h
17.01.2018 00:00 4,5 C 86 % 997,7 hPa 1,6 l/m 8,4 km/h W-SW 2,4 C 2,7 C 4,7 km/h
17.01.2018 01:00 4,5 C 86 % 997,5 hPa 0,0 l/m 0,0 km/h W-NW 2,4 C 4,5 C 0,0 km/h
17.01.2018 02:00 5,2 C 86 % 998,1 hPa 0,0 l/m 0,0 km/h W-SW 3,1 C 5,2 C 0,0 km/h
17.01.2018 03:00 4,1 C 86 % 998,3 hPa 0,0 l/m 12,3 km/h W-SW 2,0 C -0,5 C 6,8 km/h
17.01.2018 04:00 4,2 C 86 % 998,9 hPa 0,0 l/m 13,0 km/h W-SW 2,1 C -0,8 C 7,2 km/h
17.01.2018 05:00 3,9 C 86 % 999,4 hPa 0,0 l/m 22,7 km/h W 1,8 C -5,6 C 12,6 km/h
17.01.2018 06:00 3,9 C 85 % 1000,2 hPa 0,0 l/m 18,8 km/h W-NW 1,6 C -4,1 C 10,4 km/h
17.01.2018 07:00 4,1 C 77 % 1001,8 hPa 0,0 l/m 22,7 km/h W-NW 0,4 C -5,4 C 12,6 km/h
17.01.2018 08:00 2,9 C 84 % 1003,0 hPa 0,0 l/m 1,9 km/h W-NW 0,5 C 2,9 C 1,1 km/h
17.01.2018 09:00 1,8 C 86 % 1004,5 hPa 0,0 l/m 0,0 km/h W-NW -0,3 C 1,8 C 0,0 km/h
17.01.2018 10:00 2,7 C 84 % 1006,0 hPa 0,5 l/m 18,8 km/h N-NW 0,3 C -5,6 C 10,4 km/h
17.01.2018 11:00 1,5 C 86 % 1007,6 hPa 0,5 l/m 0,0 km/h N -0,6 C 1,5 C 0,0 km/h
17.01.2018 12:00 3,3 C 84 % 1007,8 hPa 0,5 l/m 0,0 km/h N-NW 0,9 C 3,3 C 0,0 km/h
17.01.2018 13:00 5,2 C 66 % 1008,5 hPa 0,0 l/m 27,9 km/h W -0,6 C -5,5 C 15,5 km/h
17.01.2018 14:00 4,9 C 67 % 1009,0 hPa 0,0 l/m 21,4 km/h W-NW -0,7 C -3,8 C 11,9 km/h
17.01.2018 15:00 4,6 C 69 % 1009,9 hPa 0,0 l/m 23,3 km/h SW -0,6 C -4,9 C 13,0 km/h
17.01.2018 16:00 3,9 C 76 % 1010,5 hPa 0,0 l/m 0,0 km/h SW 0,1 C 3,9 C 0,0 km/h
17.01.2018 17:00 3,8 C 76 % 1011,1 hPa 0,0 l/m 24,0 km/h S-SW -0,0 C -6,2 C 13,3 km/h
17.01.2018 18:00 4,1 C 76 % 1011,7 hPa 0,0 l/m 5,8 km/h W-SW 0,3 C 4,1 C 3,2 km/h
17.01.2018 19:00 3,6 C 79 % 1012,7 hPa 0,5 l/m 14,3 km/h W-SW 0,3 C -2,2 C 7,9 km/h
17.01.2018 20:00 3,6 C 80 % 1012,8 hPa 0,0 l/m 27,9 km/h NW 0,5 C -7,7 C 15,5 km/h
17.01.2018 21:00 3,8 C 80 % 1013,0 hPa 0,0 l/m 0,0 km/h SW 0,7 C 3,8 C 0,0 km/h
17.01.2018 22:00 3,3 C 82 % 1013,2 hPa 0,0 l/m 24,0 km/h SW 0,5 C -6,9 C 13,3 km/h
17.01.2018 23:00 3,5 C 82 % 1013,2 hPa 0,0 l/m 27,2 km/h W-SW 0,7 C -7,7 C 15,1 km/h
18.01.2018 00:00 3,8 C 83 % 1013,2 hPa 0,0 l/m 31,1 km/h W-SW 1,2 C -8,4 C 17,3 km/h
18.01.2018 01:00 3,4 C 84 % 1013,0 hPa 0,0 l/m 18,8 km/h SW 1,0 C -4,7 C 10,4 km/h
18.01.2018 02:00 4,0 C 84 % 1012,3 hPa 0,0 l/m 31,8 km/h W 1,5 C -8,2 C 17,6 km/h
18.01.2018 03:00 4,1 C 83 % 1010,9 hPa 0,0 l/m 46,0 km/h W-SW 1,5 C -10,8 C 25,6 km/h
18.01.2018 04:00 4,2 C 84 % 1010,0 hPa 0,0 l/m 19,4 km/h S-SW 1,7 C -4,0 C 10,8 km/h
18.01.2018 05:00 3,9 C 86 % 1008,8 hPa 0,5 l/m 18,8 km/h W-NW 1,8 C -4,1 C 10,4 km/h
18.01.2018 06:00 4,4 C 85 % 1007,5 hPa 0,0 l/m 30,5 km/h W-SW 2,1 C -7,3 C 16,9 km/h
18.01.2018 07:00 4,1 C 86 % 1006,9 hPa 0,5 l/m 45,4 km/h SW 2,0 C -10,7 C 25,2 km/h
18.01.2018 08:00 5,3 C 85 % 1007,1 hPa 0,0 l/m 23,3 km/h S-SW 3,0 C -4,0 C 13,0 km/h
18.01.2018 09:00 6,1 C 82 % 1006,8 hPa 0,0 l/m 29,2 km/h W 3,3 C -4,6 C 16,2 km/h
18.01.2018 10:00 6,8 C 82 % 1007,5 hPa 0,0 l/m 23,3 km/h SW 3,9 C -2,0 C 13,0 km/h
18.01.2018 11:00 7,8 C 81 % 1006,6 hPa 0,0 l/m 43,4 km/h W 4,7 C -4,9 C 24,1 km/h
18.01.2018 12:00 9,4 C 77 % 1005,3 hPa 0,0 l/m 24,0 km/h W-SW 5,6 C 1,3 C 13,3 km/h
18.01.2018 13:00 9,3 C 77 % 1004,6 hPa 0,0 l/m 70,0 km/h W-SW 5,5 C -4,8 C 38,9 km/h
18.01.2018 14:00 10,2 C 76 % 1004,2 hPa 0,0 l/m 28,5 km/h W 6,2 C 1,3 C 15,8 km/h
18.01.2018 15:00 9,6 C 78 % 1003,7 hPa 0,0 l/m 49,2 km/h W 6,0 C -2,8 C 27,4 km/h
18.01.2018 16:00 9,2 C 79 % 1003,5 hPa 0,0 l/m 20,1 km/h W 5,8 C 2,2 C 11,2 km/h
18.01.2018 17:00 8,3 C 82 % 1003,5 hPa 0,0 l/m 31,1 km/h W-NW 5,4 C -2,0 C 17,3 km/h
18.01.2018 18:00 7,3 C 85 % 1004,5 hPa 1,6 l/m 22,0 km/h W 4,9 C -0,9 C 12,2 km/h
18.01.2018 19:00 6,6 C 84 % 1005,0 hPa 1,0 l/m 0,0 km/h SW 4,1 C 6,6 C 0,0 km/h
18.01.2018 20:00 6,1 C 84 % 1005,0 hPa 0,5 l/m 0,0 km/h S-SW 3,6 C 6,1 C 0,0 km/h
18.01.2018 21:00 5,9 C 83 % 1004,9 hPa 0,0 l/m 3,2 km/h W-NW 3,2 C 5,9 C 1,8 km/h
18.01.2018 22:00 6,1 C 83 % 1004,7 hPa 0,0 l/m 0,0 km/h NW 3,4 C 6,1 C 0,0 km/h
18.01.2018 23:00 5,8 C 83 % 1004,6 hPa 0,0 l/m 0,0 km/h W 3,1 C 5,8 C 0,0 km/h
19.01.2018 00:00 6,5 C 85 % 1004,7 hPa 0,0 l/m 4,5 km/h W 4,2 C 6,5 C 2,5 km/h
19.01.2018 01:00 6,6 C 85 % 1004,9 hPa 0,0 l/m 14,9 km/h W 4,3 C 1,1 C 8,3 km/h
19.01.2018 02:00 6,6 C 85 % 1005,4 hPa 0,0 l/m 0,0 km/h NW 4,3 C 6,6 C 0,0 km/h
19.01.2018 03:00 6,6 C 85 % 1006,2 hPa 0,0 l/m 20,1 km/h N-NW 4,3 C -1,1 C 11,2 km/h
19.01.2018 04:00 5,1 C 84 % 1007,0 hPa 0,0 l/m 0,0 km/h W-NW 2,6 C 5,1 C 0,0 km/h
19.01.2018 05:00 4,6 C 85 % 1008,3 hPa 0,0 l/m 0,0 km/h W 2,3 C 4,6 C 0,0 km/h
19.01.2018 06:00 4,6 C 84 % 1009,1 hPa 0,0 l/m 0,0 km/h W 2,1 C 4,6 C 0,0 km/h
19.01.2018 07:00 4,5 C 80 % 1010,0 hPa 0,0 l/m 15,6 km/h NW 1,4 C -1,8 C 8,6 km/h
19.01.2018 08:00 4,1 C 79 % 1011,0 hPa 0,0 l/m 0,0 km/h W 0,8 C 4,1 C 0,0 km/h
19.01.2018 09:00 7,2 C 77 % 1011,2 hPa 0,0 l/m 3,2 km/h W 3,4 C 7,2 C 1,8 km/h
19.01.2018 10:00 6,9 C 74 % 1011,8 hPa 0,0 l/m 2,6 km/h SW 2,6 C 6,9 C 1,4 km/h
19.01.2018 11:00 6,1 C 74 % 1011,5 hPa 0,0 l/m 16,2 km/h SW 1,8 C -0,2 C 9,0 km/h
19.01.2018 12:00 6,8 C 73 % 1011,1 hPa 0,0 l/m 35,6 km/h SW 2,3 C -5,1 C 19,8 km/h
19.01.2018 13:00 6,5 C 74 % 1010,2 hPa 0,0 l/m 11,0 km/h W 2,2 C 3,1 C 6,1 km/h
19.01.2018 14:00 6,9 C 73 % 1010,0 hPa 0,0 l/m 14,9 km/h W 2,4 C 1,4 C 8,3 km/h
19.01.2018 15:00 6,1 C 76 % 1010,0 hPa 0,0 l/m 18,1 km/h W 2,2 C -1,0 C 10,1 km/h
19.01.2018 16:00 5,5 C 81 % 1009,9 hPa 0,0 l/m 0,0 km/h W-NW 2,5 C 5,5 C 0,0 km/h
19.01.2018 17:00 5,1 C 80 % 1009,7 hPa 0,0 l/m 25,9 km/h W 1,9 C -5,1 C 14,4 km/h
19.01.2018 18:00 4,4 C 84 % 1009,9 hPa 0,0 l/m 0,0 km/h W-NW 1,9 C 4,4 C 0,0 km/h
19.01.2018 19:00 4,1 C 85 % 1010,6 hPa 0,5 l/m 25,3 km/h W 1,8 C -6,3 C 14,0 km/h
19.01.2018 20:00 4,1 C 85 % 1011,2 hPa 0,0 l/m 7,1 km/h W 1,8 C 3,5 C 4,0 km/h
19.01.2018 21:00 3,1 C 86 % 1012,0 hPa 0,0 l/m 0,0 km/h W 1,0 C 3,1 C 0,0 km/h
19.01.2018 22:00 3,1 C 86 % 1012,4 hPa 0,0 l/m 0,0 km/h W 1,0 C 3,1 C 0,0 km/h
19.01.2018 23:00 3,0 C 86 % 1013,2 hPa 0,0 l/m 8,4 km/h S-SW 0,9 C 1,2 C 4,7 km/h
20.01.2018 00:00 3,2 C 86 % 1013,2 hPa 0,0 l/m 2,6 km/h S-SW 1,1 C 3,2 C 1,4 km/h
20.01.2018 01:00 3,5 C 85 % 1013,2 hPa 0,0 l/m 22,7 km/h W 1,2 C -6,2 C 12,6 km/h
20.01.2018 02:00 3,6 C 85 % 1012,7 hPa 0,0 l/m 21,4 km/h W-SW 1,3 C -5,5 C 11,9 km/h
20.01.2018 03:00 4,1 C 82 % 1011,9 hPa 0,0 l/m 15,6 km/h W 1,3 C -2,3 C 8,6 km/h
20.01.2018 04:00 4,0 C 82 % 1011,5 hPa 0,0 l/m 14,9 km/h W 1,2 C -2,1 C 8,3 km/h
20.01.2018 05:00 3,3 C 85 % 1011,2 hPa 0,0 l/m 23,3 km/h SW 1,0 C -6,7 C 13,0 km/h
20.01.2018 06:00 3,5 C 85 % 1010,7 hPa 0,0 l/m 16,8 km/h SW 1,2 C -3,7 C 9,4 km/h
20.01.2018 07:00 3,9 C 85 % 1010,3 hPa 0,0 l/m 16,8 km/h SW 1,6 C -3,2 C 9,4 km/h
20.01.2018 08:00 4,3 C 83 % 1010,1 hPa 0,0 l/m 30,5 km/h W-SW 1,7 C -7,5 C 16,9 km/h
20.01.2018 09:00 4,8 C 81 % 1009,5 hPa 0,0 l/m 3,2 km/h W 1,8 C 4,8 C 1,8 km/h
20.01.2018 10:00 5,0 C 80 % 1008,3 hPa 0,0 l/m 30,5 km/h W-SW 1,8 C -6,5 C 16,9 km/h
20.01.2018 11:00 5,8 C 77 % 1006,7 hPa 0,0 l/m 24,0 km/h SW 2,1 C -3,5 C 13,3 km/h
20.01.2018 12:00 6,3 C 75 % 1003,8 hPa 0,0 l/m 11,0 km/h W 2,2 C 2,9 C 6,1 km/h
20.01.2018 13:00 7,1 C 71 % 1001,8 hPa 0,0 l/m 16,8 km/h W-SW 2,2 C 0,8 C 9,4 km/h
20.01.2018 14:00 6,5 C 73 % 1000,0 hPa 0,0 l/m 35,0 km/h W 2,0 C -5,4 C 19,4 km/h
20.01.2018 15:00 5,9 C 78 % 998,2 hPa 0,0 l/m 13,6 km/h N-NW 2,4 C 0,9 C 7,6 km/h
20.01.2018 16:00 5,5 C 80 % 996,9 hPa 0,0 l/m 6,5 km/h SW 2,3 C 5,4 C 3,6 km/h
20.01.2018 17:00 5,6 C 85 % 995,8 hPa 0,5 l/m 24,0 km/h W-SW 3,3 C -3,8 C 13,3 km/h
20.01.2018 18:00 6,3 C 85 % 996,3 hPa 0,0 l/m 18,1 km/h W 4,0 C -0,7 C 10,1 km/h
20.01.2018 19:00 6,1 C 85 % 996,8 hPa 0,5 l/m 23,3 km/h W 3,8 C -2,9 C 13,0 km/h
20.01.2018 20:00 6,5 C 85 % 996,9 hPa 0,0 l/m 22,7 km/h W 4,2 C -2,2 C 12,6 km/h
20.01.2018 21:00 6,6 C 83 % 997,3 hPa 1,0 l/m 7,8 km/h NW 3,9 C 5,4 C 4,3 km/h
20.01.2018 22:00 6,7 C 82 % 997,6 hPa 0,0 l/m 0,0 km/h N 3,8 C 6,7 C 0,0 km/h
20.01.2018 23:00 6,2 C 83 % 998,4 hPa 0,0 l/m 0,0 km/h W-NW 3,5 C 6,2 C 0,0 km/h
21.01.2018 00:00 6,0 C 83 % 999,8 hPa 0,0 l/m 0,0 km/h NO 3,3 C 6,0 C 0,0 km/h
21.01.2018 01:00 5,5 C 84 % 1001,8 hPa 0,0 l/m 9,1 km/h N-NO 3,0 C 3,3 C 5,0 km/h
21.01.2018 02:00 5,0 C 85 % 1003,7 hPa 0,0 l/m 0,0 km/h NO 2,7 C 5,0 C 0,0 km/h
21.01.2018 03:00 4,5 C 85 % 1005,0 hPa 0,0 l/m 0,0 km/h NO 2,2 C 4,5 C 0,0 km/h
21.01.2018 04:00 4,5 C 85 % 1006,4 hPa 0,0 l/m 0,0 km/h NO 2,2 C 4,5 C 0,0 km/h
21.01.2018 05:00 4,4 C 85 % 1007,8 hPa 0,0 l/m 0,0 km/h N-NO 2,1 C 4,4 C 0,0 km/h
21.01.2018 06:00 4,3 C 86 % 1009,1 hPa 0,0 l/m 0,0 km/h N-NO 2,2 C 4,3 C 0,0 km/h
21.01.2018 07:00 3,9 C 85 % 1010,8 hPa 0,0 l/m 0,0 km/h NO 1,6 C 3,9 C 0,0 km/h
21.01.2018 08:00 3,7 C 85 % 1012,5 hPa 0,0 l/m 0,0 km/h NO 1,4 C 3,7 C 0,0 km/h
21.01.2018 09:00 3,8 C 84 % 1013,8 hPa 0,0 l/m 0,0 km/h NO 1,4 C 3,8 C 0,0 km/h
21.01.2018 10:00 3,9 C 80 % 1014,6 hPa 0,0 l/m 0,0 km/h S-SO 0,8 C 3,9 C 0,0 km/h
21.01.2018 11:00 5,3 C 82 % 1015,0 hPa 0,0 l/m 0,0 km/h N-NO 2,5 C 5,3 C 0,0 km/h
21.01.2018 12:00 6,6 C 75 % 1015,3 hPa 0,0 l/m 0,0 km/h NW 2,5 C 6,6 C 0,0 km/h
21.01.2018 13:00 6,0 C 73 % 1015,3 hPa 0,0 l/m 0,0 km/h NW 1,5 C 6,0 C 0,0 km/h
21.01.2018 14:00 6,4 C 71 % 1015,6 hPa 0,0 l/m 0,0 km/h W 1,5 C 6,4 C 0,0 km/h
21.01.2018 15:00 5,8 C 71 % 1015,8 hPa 0,0 l/m 0,0 km/h S 1,0 C 5,8 C 0,0 km/h
21.01.2018 16:00 4,4 C 76 % 1016,2 hPa 0,0 l/m 0,0 km/h S 0,5 C 4,4 C 0,0 km/h
21.01.2018 17:00 3,4 C 79 % 1016,2 hPa 0,0 l/m 0,0 km/h S 0,1 C 3,4 C 0,0 km/h
21.01.2018 18:00 3,3 C 82 % 1015,9 hPa 0,0 l/m 0,0 km/h S 0,5 C 3,3 C 0,0 km/h
21.01.2018 19:00 3,8 C 81 % 1015,7 hPa 0,0 l/m 10,4 km/h S 0,8 C 0,5 C 5,8 km/h
21.01.2018 20:00 3,1 C 81 % 1014,9 hPa 0,0 l/m 0,0 km/h S-SO 0,2 C 3,1 C 0,0 km/h
21.01.2018 21:00 2,9 C 82 % 1014,3 hPa 0,0 l/m 0,0 km/h N 0,1 C 2,9 C 0,0 km/h
Min-Datum _ 15.01.18 17.01.18 20.01.18 - 15.01.18 - 15.01.18 18.01.18 15.01.18
_ Min-Zeit 03:53 13:53 17:53 - 00:53 - 05:53 03:53 00:53
Minimum _ -3,9 C 66 % 995,8 hPa - 0,0 km/h - -6,0 C -10,8 C 0,0 km/h
Max-Datum _ 18.01.18 15.01.18 15.01.18 17.01.18 18.01.18 - 16.01.18 16.01.18 18.01.18
_ Max-Zeit 14:53 00:53 00:53 00:53 13:53 - 12:53 15:53 13:53
Maximum _ 10,2 C 86 % 1018,7 hPa 1,6 l/m 70,0 km/h
W-SW
- 6,3 C 8,9 C 38,9 km/h
W-SW
Durchschnitt _ 5,0 C 81 % 1007,1 hPa #15,0 l/m 13,7 km/h W 2,1 C 0,3 C 7,6 km/h
www.sexauwetter.de